CPA169 ZSPD-RKPK
Flight info
| Callsign | CPA169 |
|---|---|
| Flight time | N/A |
| Altitude | 34100 |
| Route | LAM84D LAMEN/N0473F341 A593 SADLI Y590 ELGEP Y722 SOSDO Y571 ANROD KEVOX3 |
| Aircraft | A359/H-SDE2E3GHIJ3J4J5LM1ORWXY/LB1D1 |
Departure
| Time | 2026-05-04 14:36 |
|---|---|
| Airport | Shanghai Pudong International Airport (ZSPD) |
Arrival
| Time | N/A |
|---|---|
| Airport | Gimhae International Airport (RKPK) |
| Time | Latitude | Longitude | Altitude | Speed | Heading |
|---|---|---|---|---|---|
| 2026-05-04 13:44 | 31.15352 | 121.80740 | 29 ft | 0 kts | 252° |
| 2026-05-04 14:20 | 31.15351 | 121.80736 | 29 ft | 0 kts | 252° |
| 2026-05-04 14:22 | 31.15351 | 121.80737 | 29 ft | 1 kts | 252° |
| 2026-05-04 14:22 | 31.15356 | 121.80755 | 28 ft | 3 kts | 252° |
| 2026-05-04 14:22 | 31.15362 | 121.80778 | 28 ft | 3 kts | 252° |
| 2026-05-04 14:23 | 31.15369 | 121.80809 | 28 ft | 3 kts | 288° |
| 2026-05-04 14:23 | 31.15363 | 121.80824 | 25 ft | 3 kts | 318° |
| 2026-05-04 14:23 | 31.15348 | 121.80837 | 27 ft | 3 kts | 334° |
| 2026-05-04 14:24 | 31.15330 | 121.80846 | 28 ft | 2 kts | 341° |
| 2026-05-04 14:24 | 31.15326 | 121.80848 | 28 ft | 4 kts | 342° |
| 2026-05-04 14:26 | 31.15327 | 121.80848 | 28 ft | 1 kts | 342° |
| 2026-05-04 14:26 | 31.15370 | 121.80830 | 26 ft | 13 kts | 342° |
| 2026-05-04 14:27 | 31.15491 | 121.80786 | 29 ft | 20 kts | 342° |
| 2026-05-04 14:27 | 31.15623 | 121.80737 | 29 ft | 15 kts | 346° |
| 2026-05-04 14:27 | 31.15687 | 121.80815 | 29 ft | 16 kts | 70° |
| 2026-05-04 14:27 | 31.15697 | 121.80848 | 29 ft | 0 kts | 71° |
| 2026-05-04 14:28 | 31.15697 | 121.80849 | 29 ft | 0 kts | 71° |
| 2026-05-04 14:29 | 31.15698 | 121.80852 | 29 ft | 4 kts | 72° |
| 2026-05-04 14:29 | 31.15725 | 121.80948 | 29 ft | 0 kts | 72° |
| 2026-05-04 14:30 | 31.15733 | 121.80977 | 29 ft | 13 kts | 72° |
| 2026-05-04 14:31 | 31.15761 | 121.81080 | 28 ft | 6 kts | 72° |
| 2026-05-04 14:31 | 31.15763 | 121.81086 | 28 ft | 0 kts | 72° |
| 2026-05-04 14:32 | 31.15769 | 121.81109 | 28 ft | 8 kts | 72° |
| 2026-05-04 14:32 | 31.15790 | 121.81197 | 28 ft | 12 kts | 86° |
| 2026-05-04 14:33 | 31.15745 | 121.81238 | 28 ft | 0 kts | 161° |
| 2026-05-04 14:35 | 31.15728 | 121.81245 | 28 ft | 18 kts | 161° |
| 2026-05-04 14:36 | 31.15334 | 121.81393 | 28 ft | 99 kts | 162° |
| 2026-05-04 14:36 | 31.14451 | 121.81728 | 30 ft | 165 kts | 162° |
| 2026-05-04 14:36 | 31.13347 | 121.82146 | 896 ft | 157 kts | 162° |
| 2026-05-04 14:36 | 31.12330 | 121.82548 | 1924 ft | 154 kts | 165° |
| 2026-05-04 14:37 | 31.11348 | 121.83146 | 2624 ft | 168 kts | 151° |
| 2026-05-04 14:37 | 31.10300 | 121.83956 | 2954 ft | 198 kts | 148° |
| 2026-05-04 14:37 | 31.09062 | 121.84911 | 3011 ft | 224 kts | 149° |
| 2026-05-04 14:37 | 31.07688 | 121.85947 | 2968 ft | 247 kts | 149° |
| 2026-05-04 14:38 | 31.06192 | 121.87052 | 2994 ft | 259 kts | 150° |
| 2026-05-04 14:38 | 31.04658 | 121.88176 | 3142 ft | 263 kts | 150° |
| 2026-05-04 14:38 | 31.03092 | 121.89317 | 3752 ft | 269 kts | 150° |
| 2026-05-04 14:38 | 31.01510 | 121.90496 | 4503 ft | 270 kts | 147° |
| 2026-05-04 14:39 | 31.00046 | 121.91884 | 4939 ft | 272 kts | 140° |
| 2026-05-04 14:39 | 30.99115 | 121.92868 | 5016 ft | 274 kts | 138° |
| 2026-05-04 14:39 | 30.97237 | 121.94889 | 5129 ft | 274 kts | 138° |
| 2026-05-04 14:40 | 30.94875 | 121.97438 | 6120 ft | 283 kts | 135° |
| 2026-05-04 14:40 | 30.93572 | 122.00058 | 7445 ft | 283 kts | 99° |
| 2026-05-04 14:40 | 30.93520 | 122.01561 | 8114 ft | 282 kts | 80° |
| 2026-05-04 14:40 | 30.94008 | 122.03776 | 9135 ft | 284 kts | 69° |
| 2026-05-04 14:41 | 30.94651 | 122.05966 | 10129 ft | 289 kts | 69° |
| 2026-05-04 14:41 | 30.95318 | 122.08240 | 10771 ft | 307 kts | 69° |
| 2026-05-04 14:41 | 30.96737 | 122.13224 | 11860 ft | 343 kts | 70° |
| 2026-05-04 14:42 | 30.98241 | 122.18628 | 13530 ft | 358 kts | 71° |
| 2026-05-04 14:42 | 30.99014 | 122.21416 | 14312 ft | 365 kts | 71° |
| 2026-05-04 14:42 | 30.99754 | 122.24277 | 15036 ft | 373 kts | 76° |
| 2026-05-04 14:43 | 31.00044 | 122.27302 | 15779 ft | 380 kts | 88° |
| 2026-05-04 14:43 | 31.00058 | 122.30411 | 16499 ft | 387 kts | 90° |
| 2026-05-04 14:43 | 31.00039 | 122.33577 | 17238 ft | 394 kts | 90° |
| 2026-05-04 14:43 | 31.00023 | 122.36789 | 17970 ft | 400 kts | 90° |
| 2026-05-04 14:44 | 31.00013 | 122.40051 | 18661 ft | 406 kts | 90° |
| 2026-05-04 14:44 | 31.00007 | 122.43376 | 19273 ft | 414 kts | 90° |
| 2026-05-04 14:44 | 31.00010 | 122.46769 | 19894 ft | 421 kts | 90° |
| 2026-05-04 14:44 | 31.00016 | 122.50213 | 20535 ft | 429 kts | 90° |
| 2026-05-04 14:45 | 31.00021 | 122.53722 | 21166 ft | 436 kts | 90° |
| 2026-05-04 14:45 | 31.00025 | 122.57285 | 21812 ft | 443 kts | 90° |
| 2026-05-04 14:45 | 31.00029 | 122.60490 | 22364 ft | 450 kts | 90° |
| 2026-05-04 14:45 | 31.00031 | 122.64162 | 22979 ft | 457 kts | 90° |
| 2026-05-04 14:46 | 31.00033 | 122.67893 | 23605 ft | 464 kts | 90° |
| 2026-05-04 14:46 | 31.00033 | 122.71687 | 24147 ft | 471 kts | 90° |
| 2026-05-04 14:46 | 31.00033 | 122.75517 | 24711 ft | 475 kts | 90° |
| 2026-05-04 14:46 | 31.00031 | 122.79379 | 25276 ft | 480 kts | 90° |
| 2026-05-04 14:47 | 31.00028 | 122.83314 | 25833 ft | 485 kts | 91° |
| 2026-05-04 14:47 | 31.00024 | 122.87250 | 26386 ft | 490 kts | 91° |
| 2026-05-04 14:47 | 31.00019 | 122.91240 | 26886 ft | 495 kts | 91° |
| 2026-05-04 14:47 | 31.00088 | 122.95252 | 27110 ft | 496 kts | 86° |
| 2026-05-04 14:48 | 31.00674 | 122.99210 | 27152 ft | 496 kts | 72° |
| 2026-05-04 14:48 | 31.01958 | 123.02924 | 27138 ft | 493 kts | 58° |
| 2026-05-04 14:48 | 31.03792 | 123.06277 | 27133 ft | 489 kts | 50° |
| 2026-05-04 14:48 | 31.05755 | 123.09457 | 27151 ft | 490 kts | 50° |
| 2026-05-04 14:49 | 31.07781 | 123.12717 | 27157 ft | 490 kts | 50° |
| 2026-05-04 14:49 | 31.09748 | 123.15897 | 27146 ft | 490 kts | 50° |
| 2026-05-04 14:49 | 31.11738 | 123.19132 | 27140 ft | 490 kts | 50° |
| 2026-05-04 14:49 | 31.13723 | 123.22368 | 27144 ft | 490 kts | 50° |
| 2026-05-04 14:50 | 31.15703 | 123.25601 | 27147 ft | 490 kts | 50° |
| 2026-05-04 14:50 | 31.17686 | 123.28846 | 27144 ft | 490 kts | 50° |
| 2026-05-04 14:50 | 31.19662 | 123.32082 | 27151 ft | 489 kts | 50° |
| 2026-05-04 14:50 | 31.21638 | 123.35321 | 27153 ft | 489 kts | 50° |
| 2026-05-04 14:51 | 31.23610 | 123.38558 | 27153 ft | 489 kts | 50° |
| 2026-05-04 14:51 | 31.25582 | 123.41796 | 27150 ft | 489 kts | 50° |
| 2026-05-04 14:51 | 31.27552 | 123.45035 | 27150 ft | 489 kts | 50° |
| 2026-05-04 14:51 | 31.29519 | 123.48271 | 27153 ft | 489 kts | 50° |
| 2026-05-04 14:52 | 31.31487 | 123.51513 | 27153 ft | 489 kts | 50° |
| 2026-05-04 14:52 | 31.33456 | 123.54757 | 27154 ft | 489 kts | 50° |
| 2026-05-04 14:52 | 31.35429 | 123.57995 | 27154 ft | 489 kts | 50° |
| 2026-05-04 14:52 | 31.37414 | 123.61235 | 27157 ft | 489 kts | 50° |
| 2026-05-04 14:53 | 31.39392 | 123.64465 | 27155 ft | 489 kts | 50° |
| 2026-05-04 14:53 | 31.41370 | 123.67698 | 27154 ft | 489 kts | 50° |
| 2026-05-04 14:53 | 31.43348 | 123.70938 | 27156 ft | 489 kts | 50° |
| 2026-05-04 14:53 | 31.45326 | 123.74181 | 27156 ft | 489 kts | 50° |
| 2026-05-04 14:54 | 31.47302 | 123.77423 | 27158 ft | 489 kts | 50° |
| 2026-05-04 14:54 | 31.49275 | 123.80665 | 27157 ft | 489 kts | 50° |
| 2026-05-04 14:54 | 31.51248 | 123.83907 | 27157 ft | 489 kts | 50° |
| 2026-05-04 14:54 | 31.53223 | 123.87158 | 27160 ft | 489 kts | 50° |
| 2026-05-04 14:55 | 31.55193 | 123.90402 | 27160 ft | 489 kts | 50° |
| 2026-05-04 14:55 | 31.57162 | 123.93649 | 27160 ft | 489 kts | 50° |
| 2026-05-04 14:55 | 31.59116 | 123.96911 | 27161 ft | 490 kts | 52° |
| 2026-05-04 14:55 | 31.60801 | 124.00402 | 27162 ft | 494 kts | 63° |
| 2026-05-04 14:56 | 31.61992 | 124.04190 | 27161 ft | 496 kts | 71° |
| 2026-05-04 14:56 | 31.62956 | 124.08077 | 27166 ft | 497 kts | 73° |
| 2026-05-04 14:56 | 31.63835 | 124.12007 | 27162 ft | 497 kts | 75° |
| 2026-05-04 14:56 | 31.64676 | 124.15942 | 27166 ft | 497 kts | 75° |
| 2026-05-04 14:57 | 31.65512 | 124.19884 | 27163 ft | 498 kts | 75° |
| 2026-05-04 14:57 | 31.66355 | 124.23821 | 27162 ft | 498 kts | 75° |
| 2026-05-04 14:57 | 31.67196 | 124.27698 | 27164 ft | 498 kts | 75° |
| 2026-05-04 14:57 | 31.68061 | 124.31640 | 27328 ft | 500 kts | 74° |
| 2026-05-04 14:58 | 31.68936 | 124.35605 | 27835 ft | 504 kts | 74° |
| 2026-05-04 14:58 | 31.69821 | 124.39604 | 28395 ft | 508 kts | 74° |
| 2026-05-04 14:58 | 31.70714 | 124.43638 | 28929 ft | 513 kts | 74° |
| 2026-05-04 14:58 | 31.71614 | 124.47712 | 29441 ft | 518 kts | 74° |
| 2026-05-04 14:59 | 31.72522 | 124.51830 | 29930 ft | 523 kts | 75° |
| 2026-05-04 14:59 | 31.73436 | 124.55987 | 30387 ft | 528 kts | 75° |
| 2026-05-04 14:59 | 31.75283 | 124.64414 | 31173 ft | 537 kts | 75° |
| 2026-05-04 15:00 | 31.76218 | 124.68693 | 31567 ft | 542 kts | 75° |
| 2026-05-04 15:00 | 31.77155 | 124.72990 | 31944 ft | 546 kts | 75° |
| 2026-05-04 15:00 | 31.78101 | 124.77332 | 32320 ft | 550 kts | 75° |
| 2026-05-04 15:01 | 31.80006 | 124.86109 | 33058 ft | 558 kts | 76° |
| 2026-05-04 15:01 | 31.80970 | 124.90557 | 33408 ft | 562 kts | 76° |
| 2026-05-04 15:01 | 31.81918 | 124.95029 | 33741 ft | 566 kts | 78° |
| 2026-05-04 15:01 | 31.82442 | 124.99613 | 34054 ft | 566 kts | 90° |